sensor_id;sensor_type;location;lat;lon;timestamp;pressure;altitude;pressure_sealevel;temperature;humidity
84316;BME280;74496;52.236;5.164;2024-03-08T00:00:17;101914.53;;;5.37;71.86
84316;BME280;74496;52.236;5.164;2024-03-08T00:02:45;101901.91;;;5.28;72.36
84316;BME280;74496;52.236;5.164;2024-03-08T00:05:13;101900.97;;;5.29;72.00
84316;BME280;74496;52.236;5.164;2024-03-08T00:07:42;101893.97;;;5.29;72.95
84316;BME280;74496;52.236;5.164;2024-03-08T00:10:12;101893.28;;;5.26;72.09
84316;BME280;74496;52.236;5.164;2024-03-08T00:12:41;101889.94;;;5.24;72.15
84316;BME280;74496;52.236;5.164;2024-03-08T00:15:08;101884.44;;;5.28;72.10
84316;BME280;74496;52.236;5.164;2024-03-08T00:17:36;101891.50;;;5.26;71.99
84316;BME280;74496;52.236;5.164;2024-03-08T00:20:04;101890.75;;;5.24;71.87
84316;BME280;74496;52.236;5.164;2024-03-08T00:22:33;101892.53;;;5.24;71.94
84316;BME280;74496;52.236;5.164;2024-03-08T00:25:01;101882.44;;;5.16;72.63
84316;BME280;74496;52.236;5.164;2024-03-08T00:27:28;101887.53;;;5.19;72.12
84316;BME280;74496;52.236;5.164;2024-03-08T00:29:57;101879.97;;;5.13;71.94
84316;BME280;74496;52.236;5.164;2024-03-08T00:32:24;101870.38;;;5.13;71.92
84316;BME280;74496;52.236;5.164;2024-03-08T00:34:51;101875.97;;;5.06;72.19
84316;BME280;74496;52.236;5.164;2024-03-08T00:37:18;101871.13;;;5.15;71.59
84316;BME280;74496;52.236;5.164;2024-03-08T00:39:45;101873.22;;;5.09;72.02
84316;BME280;74496;52.236;5.164;2024-03-08T00:42:11;101867.22;;;5.07;72.15
84316;BME280;74496;52.236;5.164;2024-03-08T00:44:39;101869.91;;;5.05;72.18
84316;BME280;74496;52.236;5.164;2024-03-08T00:47:07;101865.53;;;5.06;71.91
84316;BME280;74496;52.236;5.164;2024-03-08T00:49:34;101861.91;;;5.08;72.08
84316;BME280;74496;52.236;5.164;2024-03-08T00:52:02;101853.63;;;5.00;72.22
84316;BME280;74496;52.236;5.164;2024-03-08T00:54:28;101861.47;;;5.00;71.97
84316;BME280;74496;52.236;5.164;2024-03-08T00:56:55;101864.78;;;5.04;71.25
84316;BME280;74496;52.236;5.164;2024-03-08T00:59:23;101857.91;;;5.01;71.73
84316;BME280;74496;52.236;5.164;2024-03-08T01:01:50;101856.16;;;5.02;72.21
84316;BME280;74496;52.236;5.164;2024-03-08T01:04:18;101852.16;;;4.94;71.76
84316;BME280;74496;52.236;5.164;2024-03-08T01:06:45;101850.28;;;4.97;71.81
84316;BME280;74496;52.236;5.164;2024-03-08T01:09:12;101842.97;;;4.86;72.42
84316;BME280;74496;52.236;5.164;2024-03-08T01:11:39;101840.06;;;4.92;71.62
84316;BME280;74496;52.236;5.164;2024-03-08T01:14:07;101836.81;;;4.87;72.38
84316;BME280;74496;52.236;5.164;2024-03-08T01:16:34;101838.91;;;4.80;72.23
84316;BME280;74496;52.236;5.164;2024-03-08T01:19:01;101831.28;;;4.76;72.77
84316;BME280;74496;52.236;5.164;2024-03-08T01:21:30;101821.91;;;4.72;72.60
84316;BME280;74496;52.236;5.164;2024-03-08T01:23:56;101815.06;;;4.69;72.80
84316;BME280;74496;52.236;5.164;2024-03-08T01:26:23;101813.28;;;4.69;72.66
84316;BME280;74496;52.236;5.164;2024-03-08T01:28:50;101810.84;;;4.66;73.29
84316;BME280;74496;52.236;5.164;2024-03-08T01:31:17;101802.44;;;4.60;72.14
84316;BME280;74496;52.236;5.164;2024-03-08T01:33:43;101803.09;;;4.65;72.45
84316;BME280;74496;52.236;5.164;2024-03-08T01:36:10;101806.53;;;4.65;72.84
84316;BME280;74496;52.236;5.164;2024-03-08T01:38:42;101807.69;;;4.60;72.78
84316;BME280;74496;52.236;5.164;2024-03-08T01:41:09;101789.47;;;4.58;72.95
84316;BME280;74496;52.236;5.164;2024-03-08T01:43:35;101797.06;;;4.63;72.71
84316;BME280;74496;52.236;5.164;2024-03-08T01:46:03;101784.41;;;4.55;72.57
84316;BME280;74496;52.236;5.164;2024-03-08T01:48:30;101786.22;;;4.53;72.74
84316;BME280;74496;52.236;5.164;2024-03-08T01:50:57;101777.78;;;4.48;72.33
84316;BME280;74496;52.236;5.164;2024-03-08T01:53:24;101777.84;;;4.46;72.59
84316;BME280;74496;52.236;5.164;2024-03-08T01:55:57;101775.16;;;4.48;72.82
84316;BME280;74496;52.236;5.164;2024-03-08T01:58:24;101776.31;;;4.42;72.52
84316;BME280;74496;52.236;5.164;2024-03-08T02:00:54;101773.69;;;4.42;72.93
84316;BME280;74496;52.236;5.164;2024-03-08T02:03:21;101781.53;;;4.42;72.16
84316;BME280;74496;52.236;5.164;2024-03-08T02:05:48;101776.59;;;4.36;72.48
84316;BME280;74496;52.236;5.164;2024-03-08T02:08:17;101776.59;;;4.36;72.65
84316;BME280;74496;52.236;5.164;2024-03-08T02:10:44;101765.59;;;4.30;73.23
84316;BME280;74496;52.236;5.164;2024-03-08T02:13:13;101760.69;;;4.23;72.73
84316;BME280;74496;52.236;5.164;2024-03-08T02:15:53;101767.91;;;4.18;72.72
84316;BME280;74496;52.236;5.164;2024-03-08T02:18:20;101763.00;;;4.30;72.39
84316;BME280;74496;52.236;5.164;2024-03-08T02:20:49;101770.97;;;4.27;72.82
84316;BME280;74496;52.236;5.164;2024-03-08T02:23:16;101760.63;;;4.25;72.25
84316;BME280;74496;52.236;5.164;2024-03-08T02:25:43;101762.59;;;4.20;72.36
84316;BME280;74496;52.236;5.164;2024-03-08T02:28:10;101748.94;;;4.15;72.56
84316;BME280;74496;52.236;5.164;2024-03-08T02:30:37;101743.72;;;4.15;72.32
84316;BME280;74496;52.236;5.164;2024-03-08T02:33:04;101742.97;;;4.11;72.12
84316;BME280;74496;52.236;5.164;2024-03-08T02:35:31;101732.63;;;4.10;72.24
84316;BME280;74496;52.236;5.164;2024-03-08T02:37:59;101731.63;;;4.12;72.57
84316;BME280;74496;52.236;5.164;2024-03-08T02:40:26;101731.69;;;4.11;72.35
84316;BME280;74496;52.236;5.164;2024-03-08T02:42:53;101728.34;;;4.09;71.94
84316;BME280;74496;52.236;5.164;2024-03-08T02:45:19;101729.88;;;4.13;71.79
84316;BME280;74496;52.236;5.164;2024-03-08T02:47:47;101725.56;;;4.12;72.27
84316;BME280;74496;52.236;5.164;2024-03-08T02:50:14;101720.63;;;4.06;72.83
84316;BME280;74496;52.236;5.164;2024-03-08T02:52:41;101729.31;;;4.06;73.31
84316;BME280;74496;52.236;5.164;2024-03-08T02:55:10;101714.78;;;4.00;72.30
84316;BME280;74496;52.236;5.164;2024-03-08T02:57:40;101715.63;;;4.01;72.40
84316;BME280;74496;52.236;5.164;2024-03-08T03:00:08;101713.09;;;3.99;71.92
84316;BME280;74496;52.236;5.164;2024-03-08T03:02:35;101711.28;;;4.02;72.50
84316;BME280;74496;52.236;5.164;2024-03-08T03:05:03;101710.41;;;4.01;72.66
84316;BME280;74496;52.236;5.164;2024-03-08T03:07:32;101706.25;;;3.97;72.52
84316;BME280;74496;52.236;5.164;2024-03-08T03:09:59;101704.88;;;3.90;73.06
84316;BME280;74496;52.236;5.164;2024-03-08T03:12:27;101702.34;;;3.88;72.30
84316;BME280;74496;52.236;5.164;2024-03-08T03:14:54;101697.03;;;3.90;72.58
84316;BME280;74496;52.236;5.164;2024-03-08T03:17:22;101692.75;;;3.89;72.62
84316;BME280;74496;52.236;5.164;2024-03-08T03:19:48;101697.69;;;3.95;72.00
84316;BME280;74496;52.236;5.164;2024-03-08T03:22:15;101698.16;;;3.84;73.30
84316;BME280;74496;52.236;5.164;2024-03-08T03:24:42;101694.56;;;3.87;72.46
84316;BME280;74496;52.236;5.164;2024-03-08T03:27:09;101696.25;;;3.88;72.65
84316;BME280;74496;52.236;5.164;2024-03-08T03:29:38;101688.72;;;3.82;72.10
84316;BME280;74496;52.236;5.164;2024-03-08T03:32:05;101687.81;;;3.83;72.60
84316;BME280;74496;52.236;5.164;2024-03-08T03:34:33;101693.19;;;3.80;72.83
84316;BME280;74496;52.236;5.164;2024-03-08T03:37:01;101679.13;;;3.82;72.51
84316;BME280;74496;52.236;5.164;2024-03-08T03:39:28;101680.72;;;3.85;72.50
84316;BME280;74496;52.236;5.164;2024-03-08T03:41:57;101678.44;;;3.79;72.21
84316;BME280;74496;52.236;5.164;2024-03-08T03:44:24;101678.50;;;3.77;72.83
84316;BME280;74496;52.236;5.164;2024-03-08T03:46:52;101669.53;;;3.83;72.54
84316;BME280;74496;52.236;5.164;2024-03-08T03:49:19;101668.63;;;3.84;71.87
84316;BME280;74496;52.236;5.164;2024-03-08T03:51:45;101670.06;;;3.72;72.34
84316;BME280;74496;52.236;5.164;2024-03-08T03:54:12;101664.06;;;3.70;72.35
84316;BME280;74496;52.236;5.164;2024-03-08T03:56:40;101668.34;;;3.71;72.04
84316;BME280;74496;52.236;5.164;2024-03-08T03:59:07;101667.66;;;3.67;72.75
84316;BME280;74496;52.236;5.164;2024-03-08T04:01:33;101663.28;;;3.68;72.18
84316;BME280;74496;52.236;5.164;2024-03-08T04:04:02;101670.50;;;3.63;71.93
84316;BME280;74496;52.236;5.164;2024-03-08T04:06:28;101659.78;;;3.69;72.20
84316;BME280;74496;52.236;5.164;2024-03-08T04:08:55;101663.22;;;3.69;71.45
84316;BME280;74496;52.236;5.164;2024-03-08T04:11:22;101660.91;;;3.63;71.88
84316;BME280;74496;52.236;5.164;2024-03-08T04:13:49;101662.44;;;3.67;71.52
84316;BME280;74496;52.236;5.164;2024-03-08T04:16:15;101665.13;;;3.66;71.28
84316;BME280;74496;52.236;5.164;2024-03-08T04:18:44;101656.28;;;3.68;71.67
84316;BME280;74496;52.236;5.164;2024-03-08T04:21:12;101653.84;;;3.65;71.27
84316;BME280;74496;52.236;5.164;2024-03-08T04:23:39;101655.44;;;3.68;71.84
84316;BME280;74496;52.236;5.164;2024-03-08T04:26:05;101656.53;;;3.64;71.42
84316;BME280;74496;52.236;5.164;2024-03-08T04:28:34;101648.63;;;3.65;71.79
84316;BME280;74496;52.236;5.164;2024-03-08T04:31:02;101652.44;;;3.58;71.32
84316;BME280;74496;52.236;5.164;2024-03-08T04:33:29;101647.22;;;3.58;71.18
84316;BME280;74496;52.236;5.164;2024-03-08T04:35:56;101643.22;;;3.51;71.34
84316;BME280;74496;52.236;5.164;2024-03-08T04:38:24;101649.41;;;3.48;71.51
84316;BME280;74496;52.236;5.164;2024-03-08T04:40:51;101647.72;;;3.47;71.45
84316;BME280;74496;52.236;5.164;2024-03-08T04:43:19;101640.97;;;3.43;72.60
84316;BME280;74496;52.236;5.164;2024-03-08T04:45:46;101646.03;;;3.46;72.21
84316;BME280;74496;52.236;5.164;2024-03-08T04:48:14;101647.94;;;3.43;71.71
84316;BME280;74496;52.236;5.164;2024-03-08T04:50:41;101638.66;;;3.37;71.43
84316;BME280;74496;52.236;5.164;2024-03-08T04:53:07;101640.31;;;3.38;71.98
84316;BME280;74496;52.236;5.164;2024-03-08T04:55:36;101637.72;;;3.38;71.32
84316;BME280;74496;52.236;5.164;2024-03-08T04:58:03;101633.44;;;3.37;71.22
84316;BME280;74496;52.236;5.164;2024-03-08T05:00:31;101635.94;;;3.39;70.84
84316;BME280;74496;52.236;5.164;2024-03-08T05:02:58;101632.44;;;3.40;71.49
84316;BME280;74496;52.236;5.164;2024-03-08T05:05:25;101626.59;;;3.35;71.33
84316;BME280;74496;52.236;5.164;2024-03-08T05:07:53;101636.25;;;3.33;72.98
84316;BME280;74496;52.236;5.164;2024-03-08T05:10:20;101626.38;;;3.39;71.88
84316;BME280;74496;52.236;5.164;2024-03-08T05:12:48;101629.19;;;3.35;72.36
84316;BME280;74496;52.236;5.164;2024-03-08T05:15:15;101622.22;;;3.35;71.86
84316;BME280;74496;52.236;5.164;2024-03-08T05:17:42;101630.97;;;3.34;72.55
84316;BME280;74496;52.236;5.164;2024-03-08T05:20:09;101629.41;;;3.30;71.79
84316;BME280;74496;52.236;5.164;2024-03-08T05:22:38;101623.41;;;3.28;72.39
84316;BME280;74496;52.236;5.164;2024-03-08T05:25:06;101618.28;;;3.26;71.75
84316;BME280;74496;52.236;5.164;2024-03-08T05:27:36;101615.59;;;3.28;71.48
84316;BME280;74496;52.236;5.164;2024-03-08T05:30:05;101620.19;;;3.23;71.21
84316;BME280;74496;52.236;5.164;2024-03-08T05:32:32;101613.91;;;3.27;70.91
84316;BME280;74496;52.236;5.164;2024-03-08T05:34:58;101614.13;;;3.22;70.92
84316;BME280;74496;52.236;5.164;2024-03-08T05:37:32;101606.53;;;3.18;71.69
84316;BME280;74496;52.236;5.164;2024-03-08T05:39:59;101605.69;;;3.17;71.41
84316;BME280;74496;52.236;5.164;2024-03-08T05:42:26;101610.09;;;3.15;70.98
84316;BME280;74496;52.236;5.164;2024-03-08T05:44:53;101613.56;;;3.16;71.17
84316;BME280;74496;52.236;5.164;2024-03-08T05:47:24;101610.19;;;3.14;71.94
84316;BME280;74496;52.236;5.164;2024-03-08T05:49:50;101612.56;;;3.18;71.14
84316;BME280;74496;52.236;5.164;2024-03-08T05:52:18;101609.53;;;3.09;71.14
84316;BME280;74496;52.236;5.164;2024-03-08T05:54:45;101606.53;;;3.18;70.96
84316;BME280;74496;52.236;5.164;2024-03-08T05:57:12;101608.16;;;3.20;70.88
84316;BME280;74496;52.236;5.164;2024-03-08T05:59:39;101600.38;;;3.19;71.92
84316;BME280;74496;52.236;5.164;2024-03-08T06:02:06;101604.59;;;3.21;70.97
84316;BME280;74496;52.236;5.164;2024-03-08T06:04:34;101598.56;;;3.21;71.15
84316;BME280;74496;52.236;5.164;2024-03-08T06:07:01;101595.94;;;3.21;70.92
84316;BME280;74496;52.236;5.164;2024-03-08T06:09:28;101596.78;;;3.21;71.15
84316;BME280;74496;52.236;5.164;2024-03-08T06:11:55;101595.94;;;3.21;71.10
84316;BME280;74496;52.236;5.164;2024-03-08T06:14:22;101593.47;;;3.18;70.96
84316;BME280;74496;52.236;5.164;2024-03-08T06:16:49;101585.53;;;3.21;70.59
84316;BME280;74496;52.236;5.164;2024-03-08T06:19:16;101586.22;;;3.24;71.52
84316;BME280;74496;52.236;5.164;2024-03-08T06:21:44;101590.44;;;3.08;70.96
84316;BME280;74496;52.236;5.164;2024-03-08T06:24:11;101582.63;;;3.08;70.46
84316;BME280;74496;52.236;5.164;2024-03-08T06:26:38;101586.72;;;3.14;71.35
84316;BME280;74496;52.236;5.164;2024-03-08T06:29:04;101587.56;;;3.14;71.69
84316;BME280;74496;52.236;5.164;2024-03-08T06:31:32;101589.09;;;3.18;71.29
84316;BME280;74496;52.236;5.164;2024-03-08T06:33:59;101591.94;;;3.14;71.43
84316;BME280;74496;52.236;5.164;2024-03-08T06:36:25;101589.09;;;3.18;70.94
84316;BME280;74496;52.236;5.164;2024-03-08T06:38:55;101584.69;;;3.20;70.53
84316;BME280;74496;52.236;5.164;2024-03-08T06:41:23;101584.81;;;3.17;71.06
84316;BME280;74496;52.236;5.164;2024-03-08T06:43:49;101580.53;;;3.16;71.14
84316;BME280;74496;52.236;5.164;2024-03-08T06:46:17;101585.44;;;3.22;70.39
84316;BME280;74496;52.236;5.164;2024-03-08T06:48:46;101588.78;;;3.26;71.48
84316;BME280;74496;52.236;5.164;2024-03-08T06:51:12;101581.78;;;3.26;70.91
84316;BME280;74496;52.236;5.164;2024-03-08T06:53:39;101577.41;;;3.27;71.38
84316;BME280;74496;52.236;5.164;2024-03-08T06:56:07;101584.31;;;3.28;71.47
84316;BME280;74496;52.236;5.164;2024-03-08T06:58:34;101581.84;;;3.25;71.31
84316;BME280;74496;52.236;5.164;2024-03-08T07:01:01;101586.34;;;3.21;71.64
84316;BME280;74496;52.236;5.164;2024-03-08T07:03:29;101580.06;;;3.25;70.45
84316;BME280;74496;52.236;5.164;2024-03-08T07:05:57;101572.09;;;3.28;71.35
84316;BME280;74496;52.236;5.164;2024-03-08T07:08:24;101574.66;;;3.30;71.96
84316;BME280;74496;52.236;5.164;2024-03-08T07:10:52;101566.91;;;3.28;71.71
84316;BME280;74496;52.236;5.164;2024-03-08T07:13:20;101564.78;;;3.37;71.43
84316;BME280;74496;52.236;5.164;2024-03-08T07:15:47;101564.56;;;3.41;71.24
84316;BME280;74496;52.236;5.164;2024-03-08T07:18:14;101567.78;;;3.46;71.08
84316;BME280;74496;52.236;5.164;2024-03-08T07:20:41;101557.97;;;3.51;71.01
84316;BME280;74496;52.236;5.164;2024-03-08T07:23:09;101559.69;;;3.52;70.47
84316;BME280;74496;52.236;5.164;2024-03-08T07:25:36;101556.53;;;3.63;70.52
84316;BME280;74496;52.236;5.164;2024-03-08T07:28:04;101558.91;;;3.68;69.94
84316;BME280;74496;52.236;5.164;2024-03-08T07:30:33;101557.88;;;3.72;69.66
84316;BME280;74496;52.236;5.164;2024-03-08T07:33:19;101556.78;;;3.76;69.62
84316;BME280;74496;52.236;5.164;2024-03-08T07:35:48;101554.56;;;3.86;70.00
84316;BME280;74496;52.236;5.164;2024-03-08T07:38:15;101547.41;;;3.89;69.56
84316;BME280;74496;52.236;5.164;2024-03-08T07:40:42;101545.75;;;3.88;70.30
84316;BME280;74496;52.236;5.164;2024-03-08T07:43:11;101548.16;;;3.91;68.91
84316;BME280;74496;52.236;5.164;2024-03-08T07:45:39;101538.09;;;4.01;69.63
84316;BME280;74496;52.236;5.164;2024-03-08T07:48:07;101539.13;;;3.98;69.56
84316;BME280;74496;52.236;5.164;2024-03-08T07:50:36;101537.09;;;4.04;70.11
84316;BME280;74496;52.236;5.164;2024-03-08T07:53:03;101526.66;;;4.04;69.20
84316;BME280;74496;52.236;5.164;2024-03-08T07:55:32;101530.59;;;4.12;69.02
84316;BME280;74496;52.236;5.164;2024-03-08T07:57:59;101527.81;;;4.15;70.33
84316;BME280;74496;52.236;5.164;2024-03-08T08:00:26;101531.69;;;4.24;69.68
84316;BME280;74496;52.236;5.164;2024-03-08T08:02:54;101525.56;;;4.25;69.20
84316;BME280;74496;52.236;5.164;2024-03-08T08:05:21;101528.59;;;4.33;67.98
84316;BME280;74496;52.236;5.164;2024-03-08T08:07:48;101522.28;;;4.37;68.97
84316;BME280;74496;52.236;5.164;2024-03-08T08:10:15;101516.69;;;4.45;68.66
84316;BME280;74496;52.236;5.164;2024-03-08T08:12:44;101519.56;;;4.56;68.63
84316;BME280;74496;52.236;5.164;2024-03-08T08:15:12;101510.63;;;4.60;69.33
84316;BME280;74496;52.236;5.164;2024-03-08T08:17:40;101510.47;;;4.63;66.94
84316;BME280;74496;52.236;5.164;2024-03-08T08:20:10;101507.13;;;4.77;68.15
84316;BME280;74496;52.236;5.164;2024-03-08T08:22:37;101498.84;;;4.85;68.40
84316;BME280;74496;52.236;5.164;2024-03-08T08:25:05;101501.97;;;4.91;66.95
84316;BME280;74496;52.236;5.164;2024-03-08T08:27:32;101493.44;;;5.04;66.53
84316;BME280;74496;52.236;5.164;2024-03-08T08:29:59;101487.28;;;5.05;65.99
84316;BME280;74496;52.236;5.164;2024-03-08T08:32:26;101490.78;;;5.20;67.09
84316;BME280;74496;52.236;5.164;2024-03-08T08:34:53;101479.25;;;5.24;66.27
84316;BME280;74496;52.236;5.164;2024-03-08T08:37:21;101483.09;;;5.32;65.76
84316;BME280;74496;52.236;5.164;2024-03-08T08:39:49;101480.63;;;5.45;65.11
84316;BME280;74496;52.236;5.164;2024-03-08T08:42:16;101485.03;;;5.59;65.33
84316;BME280;74496;52.236;5.164;2024-03-08T08:44:43;101467.44;;;5.77;64.60
84316;BME280;74496;52.236;5.164;2024-03-08T08:47:10;101472.44;;;5.65;63.87
84316;BME280;74496;52.236;5.164;2024-03-08T08:49:37;101461.59;;;5.72;63.81
84316;BME280;74496;52.236;5.164;2024-03-08T08:52:04;101461.72;;;5.84;64.96
84316;BME280;74496;52.236;5.164;2024-03-08T08:54:32;101468.13;;;5.95;63.23
84316;BME280;74496;52.236;5.164;2024-03-08T08:56:59;101456.81;;;5.94;62.85
84316;BME280;74496;52.236;5.164;2024-03-08T08:59:26;101453.81;;;6.15;63.97
84316;BME280;74496;52.236;5.164;2024-03-08T09:01:53;101456.00;;;6.22;63.62
84316;BME280;74496;52.236;5.164;2024-03-08T09:04:20;101464.97;;;6.32;61.66
84316;BME280;74496;52.236;5.164;2024-03-08T09:06:48;101455.31;;;6.33;62.93
84316;BME280;74496;52.236;5.164;2024-03-08T09:09:15;101446.25;;;6.39;62.63
84316;BME280;74496;52.236;5.164;2024-03-08T09:11:44;101449.13;;;6.48;61.21
84316;BME280;74496;52.236;5.164;2024-03-08T09:14:11;101453.44;;;6.49;61.88
84316;BME280;74496;52.236;5.164;2024-03-08T09:16:38;101441.03;;;6.51;62.39
84316;BME280;74496;52.236;5.164;2024-03-08T09:19:05;101435.59;;;6.69;61.65
84316;BME280;74496;52.236;5.164;2024-03-08T09:21:32;101438.59;;;6.63;60.77
84316;BME280;74496;52.236;5.164;2024-03-08T09:24:00;101432.47;;;6.76;61.93
84316;BME280;74496;52.236;5.164;2024-03-08T09:26:27;101427.78;;;6.81;62.74
84316;BME280;74496;52.236;5.164;2024-03-08T09:28:55;101421.53;;;6.97;61.96
84316;BME280;74496;52.236;5.164;2024-03-08T09:31:23;101415.91;;;7.03;62.27
84316;BME280;74496;52.236;5.164;2024-03-08T09:33:49;101415.09;;;7.15;59.20
84316;BME280;74496;52.236;5.164;2024-03-08T09:36:17;101415.94;;;7.16;61.85
84316;BME280;74496;52.236;5.164;2024-03-08T09:38:44;101408.19;;;7.27;61.17
84316;BME280;74496;52.236;5.164;2024-03-08T09:41:11;101404.75;;;7.39;61.15
84316;BME280;74496;52.236;5.164;2024-03-08T09:43:38;101399.84;;;7.60;60.33
84316;BME280;74496;52.236;5.164;2024-03-08T09:46:07;101394.06;;;7.68;58.72
84316;BME280;74496;52.236;5.164;2024-03-08T09:48:34;101385.22;;;7.82;58.91
84316;BME280;74496;52.236;5.164;2024-03-08T09:51:02;101386.16;;;7.93;61.16
84316;BME280;74496;52.236;5.164;2024-03-08T09:53:29;101372.38;;;8.03;58.64
84316;BME280;74496;52.236;5.164;2024-03-08T09:55:56;101369.19;;;8.23;59.04
84316;BME280;74496;52.236;5.164;2024-03-08T09:58:24;101367.38;;;8.36;59.19
84316;BME280;74496;52.236;5.164;2024-03-08T10:01:20;101359.22;;;8.52;57.68
84316;BME280;74496;52.236;5.164;2024-03-08T10:03:48;101354.50;;;8.68;57.15
84316;BME280;74496;52.236;5.164;2024-03-08T10:06:15;101363.59;;;8.88;56.42
84316;BME280;74496;52.236;5.164;2024-03-08T10:08:42;101355.50;;;9.03;57.41
84316;BME280;74496;52.236;5.164;2024-03-08T10:11:09;101346.56;;;9.16;56.85
84316;BME280;74496;52.236;5.164;2024-03-08T10:13:37;101343.16;;;9.38;56.16
84316;BME280;74496;52.236;5.164;2024-03-08T10:16:06;101346.97;;;9.57;56.55
84316;BME280;74496;52.236;5.164;2024-03-08T10:18:35;101342.81;;;9.88;53.55
84316;BME280;74496;52.236;5.164;2024-03-08T10:21:03;101329.09;;;10.17;54.11
84316;BME280;74496;52.236;5.164;2024-03-08T10:23:35;101329.66;;;10.54;52.97
84316;BME280;74496;52.236;5.164;2024-03-08T10:26:10;101321.72;;;10.86;50.87
84316;BME280;74496;52.236;5.164;2024-03-08T10:28:40;101316.91;;;11.12;53.87
84316;BME280;74496;52.236;5.164;2024-03-08T10:31:08;101317.19;;;11.40;50.02
84316;BME280;74496;52.236;5.164;2024-03-08T10:33:36;101312.69;;;11.61;49.58
84316;BME280;74496;52.236;5.164;2024-03-08T10:36:06;101306.31;;;11.85;47.63
84316;BME280;74496;52.236;5.164;2024-03-08T10:38:35;101297.50;;;11.84;48.13
84316;BME280;74496;52.236;5.164;2024-03-08T10:41:03;101296.78;;;11.82;48.00
84316;BME280;74496;52.236;5.164;2024-03-08T10:43:39;101288.41;;;12.08;48.62
84316;BME280;74496;52.236;5.164;2024-03-08T10:46:16;101275.03;;;12.09;47.25
84316;BME280;74496;52.236;5.164;2024-03-08T10:48:50;101272.56;;;12.37;47.19
84316;BME280;74496;52.236;5.164;2024-03-08T10:51:19;101267.00;;;12.40;47.57
84316;BME280;74496;52.236;5.164;2024-03-08T10:53:46;101261.84;;;12.58;48.01
84316;BME280;74496;52.236;5.164;2024-03-08T10:56:16;101260.03;;;12.68;46.90
84316;BME280;74496;52.236;5.164;2024-03-08T10:58:44;101251.91;;;12.79;45.66
84316;BME280;74496;52.236;5.164;2024-03-08T11:01:11;101250.63;;;12.93;44.67
84316;BME280;74496;52.236;5.164;2024-03-08T11:03:44;101244.31;;;13.23;45.61
84316;BME280;74496;52.236;5.164;2024-03-08T11:06:16;101236.44;;;13.41;46.48
84316;BME280;74496;52.236;5.164;2024-03-08T11:08:43;101245.69;;;13.65;46.32
84316;BME280;74496;52.236;5.164;2024-03-08T11:11:27;101235.19;;;13.91;44.01
84316;BME280;74496;52.236;5.164;2024-03-08T11:13:56;101227.88;;;14.38;42.44
84316;BME280;74496;52.236;5.164;2024-03-08T11:16:37;101224.91;;;14.59;41.69
84316;BME280;74496;52.236;5.164;2024-03-08T11:19:23;101223.72;;;14.80;41.86
84316;BME280;74496;52.236;5.164;2024-03-08T11:22:01;101206.69;;;15.16;41.21
84316;BME280;74496;52.236;5.164;2024-03-08T11:24:36;101203.22;;;15.58;40.58
84316;BME280;74496;52.236;5.164;2024-03-08T11:27:05;101194.53;;;15.90;38.62
84316;BME280;74496;52.236;5.164;2024-03-08T11:29:33;101202.66;;;15.89;39.75
84316;BME280;74496;52.236;5.164;2024-03-08T11:32:04;101192.03;;;16.05;38.07
84316;BME280;74496;52.236;5.164;2024-03-08T11:34:32;101189.72;;;16.27;38.20
84316;BME280;74496;52.236;5.164;2024-03-08T11:37:03;101175.22;;;16.54;36.04
84316;BME280;74496;52.236;5.164;2024-03-08T11:39:31;101169.06;;;16.61;37.99
84316;BME280;74496;52.236;5.164;2024-03-08T11:41:58;101165.41;;;16.79;37.52
84316;BME280;74496;52.236;5.164;2024-03-08T11:44:27;101157.56;;;16.77;38.05
84316;BME280;74496;52.236;5.164;2024-03-08T11:46:54;101151.38;;;17.01;36.91
84316;BME280;74496;52.236;5.164;2024-03-08T11:49:20;101147.41;;;16.89;35.41
84316;BME280;74496;52.236;5.164;2024-03-08T11:51:51;101146.94;;;16.69;34.79
84316;BME280;74496;52.236;5.164;2024-03-08T11:54:20;101137.94;;;16.70;37.43
84316;BME280;74496;52.236;5.164;2024-03-08T11:56:47;101132.38;;;16.96;37.69
84316;BME280;74496;52.236;5.164;2024-03-08T11:59:13;101127.38;;;17.01;35.40
84316;BME280;74496;52.236;5.164;2024-03-08T12:01:40;101128.00;;;17.11;35.45
84316;BME280;74496;52.236;5.164;2024-03-08T12:04:11;101118.50;;;17.09;36.47
84316;BME280;74496;52.236;5.164;2024-03-08T12:06:39;101106.44;;;17.52;35.94
84316;BME280;74496;52.236;5.164;2024-03-08T12:09:10;101117.31;;;17.74;33.40
84316;BME280;74496;52.236;5.164;2024-03-08T12:11:39;101102.41;;;17.88;33.91
84316;BME280;74496;52.236;5.164;2024-03-08T12:14:07;101105.47;;;17.99;33.30
84316;BME280;74496;52.236;5.164;2024-03-08T12:16:34;101090.47;;;18.36;35.08
84316;BME280;74496;52.236;5.164;2024-03-08T12:19:02;101098.31;;;18.52;34.86
84316;BME280;74496;52.236;5.164;2024-03-08T12:21:31;101088.53;;;19.04;32.98
84316;BME280;74496;52.236;5.164;2024-03-08T12:24:04;101093.91;;;18.74;32.39
84316;BME280;74496;52.236;5.164;2024-03-08T12:26:35;101076.63;;;19.43;31.63
84316;BME280;74496;52.236;5.164;2024-03-08T12:29:17;101071.56;;;19.48;30.73
84316;BME280;74496;52.236;5.164;2024-03-08T12:31:46;101068.75;;;19.99;30.79
84316;BME280;74496;52.236;5.164;2024-03-08T12:34:13;101069.16;;;20.24;30.61
84316;BME280;74496;52.236;5.164;2024-03-08T12:36:45;101061.03;;;20.11;29.34
84316;BME280;74496;52.236;5.164;2024-03-08T12:39:13;101062.50;;;20.20;29.12
84316;BME280;74496;52.236;5.164;2024-03-08T12:41:41;101054.50;;;20.27;28.48
84316;BME280;74496;52.236;5.164;2024-03-08T12:44:08;101044.31;;;20.37;28.71
84316;BME280;74496;52.236;5.164;2024-03-08T12:46:38;101046.63;;;20.88;28.45
84316;BME280;74496;52.236;5.164;2024-03-08T12:49:09;101045.66;;;21.09;30.02
84316;BME280;74496;52.236;5.164;2024-03-08T12:51:37;101042.63;;;20.36;28.57
84316;BME280;74496;52.236;5.164;2024-03-08T12:54:04;101046.25;;;20.98;28.26
84316;BME280;74496;52.236;5.164;2024-03-08T12:56:33;101032.72;;;20.65;28.49
84316;BME280;74496;52.236;5.164;2024-03-08T12:59:01;101030.63;;;21.15;27.79
84316;BME280;74496;52.236;5.164;2024-03-08T13:01:28;101037.56;;;21.64;26.02